createdAt,value
2022-10-12T00:01:51.024Z,18.00
2022-10-12T00:07:53.319Z,18.10
2022-10-12T00:13:56.079Z,18.09
2022-10-12T00:19:59.755Z,18.17
2022-10-12T00:26:13.539Z,18.10
2022-10-12T00:32:15.769Z,18.10
2022-10-12T00:38:18.089Z,18.11
2022-10-12T00:44:36.098Z,18.07
2022-10-12T00:50:38.628Z,18.02
2022-10-12T00:56:45.380Z,17.96
2022-10-12T01:02:50.290Z,17.84
2022-10-12T01:08:55.637Z,17.94
2022-10-12T01:14:57.788Z,17.87
2022-10-12T01:21:21.522Z,17.80
2022-10-12T01:27:47.748Z,17.80
2022-10-12T01:33:58.867Z,17.75
2022-10-12T01:40:09.056Z,17.82
2022-10-12T01:46:17.514Z,17.83
2022-10-12T01:52:29.875Z,17.79
2022-10-12T01:58:54.016Z,17.90
2022-10-12T02:05:02.222Z,17.77
2022-10-12T02:11:11.232Z,17.87
2022-10-12T02:17:16.619Z,17.86
2022-10-12T02:23:20.026Z,17.87
2022-10-12T02:29:31.198Z,17.77
2022-10-12T02:35:41.935Z,17.68
2022-10-12T02:41:50.131Z,17.77
2022-10-12T02:47:57.718Z,17.74
2022-10-12T02:54:00.177Z,17.65
2022-10-12T03:00:04.898Z,17.78
2022-10-12T03:06:07.547Z,17.80
2022-10-12T03:12:09.463Z,17.68
2022-10-12T03:18:11.612Z,17.79
2022-10-12T03:24:13.701Z,17.62
2022-10-12T03:30:16.059Z,17.49
2022-10-12T03:36:20.198Z,17.31
2022-10-12T03:42:22.277Z,17.45
2022-10-12T03:48:24.903Z,17.32
2022-10-12T03:54:28.213Z,17.19
2022-10-12T04:00:30.979Z,16.91
2022-10-12T04:06:32.941Z,16.80
2022-10-12T04:12:34.951Z,16.79
2022-10-12T04:18:37.403Z,16.93
2022-10-12T04:24:40.332Z,16.84
2022-10-12T04:30:45.725Z,16.83
2022-10-12T04:36:47.821Z,16.68
2022-10-12T04:42:50.281Z,16.63
2022-10-12T04:48:52.214Z,16.68
2022-10-12T04:54:54.155Z,16.78
2022-10-12T05:07:40.655Z,16.76
2022-10-12T05:13:43.105Z,16.71
